Portada
METAR-TAF:

METAR-TAF

Aeroports :

Cairns, Austràlia

latitud: 16-53S, longitud: 145-45E, altitud: 3 m

Observació

L'informe es va fer fa 22 minuts, a les 03:30 UTC
Vent 13 kt del Est
Temperatura 30°C
Humitat 49%
Pressió 1011 hPa
Visibilitat 10 km o més
Cel ennuvolat a una alçada de 4300 ft

METAR: YBCS 210330Z AUTO 09013KT 9999 // BKN043 30/18 Q1011 RF00.0/000.0 NOSIG

Hora: 13:52 (03:52 UTC)

Pronòstic

L'informe es va fer fa 4 hores i 39 minuts, a les 23:13 UTC
Pronòstic vàlid del 21 a les 00 UTC al 22 a les 00 UTC
Vent 12 kt del Est/Sud-Est
Visibilitat 10 km o més
Escasses núvols a una alçada de 3500 ft
A partir de les 21 a les 0900 UTC
Vent 6 kt del Sud/Sud-Est
Visibilitat 10 km o més
Núvols disperses a una alçada de 3000 ft

TAF: YBCS 202313Z 2100/2200 12012KT 9999 FEW035 FM210900 16006KT 9999 SCT030

Observacions i pronòstics meteorològics de més de 4000 aeroports (METAR i TAF).

Les estacions disponibles són els punts grocs i vermells al mapa.

Posi el ratolí al punt desitjat per veure el nom de l'estació.

Feu clic per veure les observacions i els pronòstics meteorològics.

Per canviar el mapa: feu clic els botons verds amb una creu de color negre per apropar; al botó verd amb un guió per allunyar la imatge; o en les fletxes verdes per a mapes adjacents.


METAR-TAF: